sensor_id;sensor_type;location;lat;lon;timestamp;temperature;humidity
54930;DHT22;40833;53.238;6.576;2023-04-24T00:00:11;11.40;99.90
54930;DHT22;40833;53.238;6.576;2023-04-24T00:02:44;11.30;99.90
54930;DHT22;40833;53.238;6.576;2023-04-24T00:05:17;11.10;99.90
54930;DHT22;40833;53.238;6.576;2023-04-24T00:07:43;11.10;99.90
54930;DHT22;40833;53.238;6.576;2023-04-24T00:10:10;11.10;99.90
54930;DHT22;40833;53.238;6.576;2023-04-24T00:15:02;11.10;99.90
54930;DHT22;40833;53.238;6.576;2023-04-24T00:17:28;10.90;99.90
54930;DHT22;40833;53.238;6.576;2023-04-24T00:19:54;11.10;99.90
54930;DHT22;40833;53.238;6.576;2023-04-24T00:22:27;11.00;99.90
54930;DHT22;40833;53.238;6.576;2023-04-24T00:32:13;10.90;99.90
54930;DHT22;40833;53.238;6.576;2023-04-24T00:49:23;10.70;99.90
54930;DHT22;40833;53.238;6.576;2023-04-24T00:56:44;10.50;99.90
54930;DHT22;40833;53.238;6.576;2023-04-24T00:59:10;10.40;99.90
54930;DHT22;40833;53.238;6.576;2023-04-24T01:01:36;10.50;99.90
54930;DHT22;40833;53.238;6.576;2023-04-24T01:04:02;10.70;99.90
54930;DHT22;40833;53.238;6.576;2023-04-24T01:06:29;10.50;99.90
54930;DHT22;40833;53.238;6.576;2023-04-24T01:08:57;10.50;99.90
54930;DHT22;40833;53.238;6.576;2023-04-24T01:16:15;10.50;99.90
54930;DHT22;40833;53.238;6.576;2023-04-24T01:18:43;10.50;99.90
54930;DHT22;40833;53.238;6.576;2023-04-24T01:21:09;10.40;99.90
54930;DHT22;40833;53.238;6.576;2023-04-24T01:23:37;10.40;99.90
54930;DHT22;40833;53.238;6.576;2023-04-24T01:26:02;10.40;99.90
54930;DHT22;40833;53.238;6.576;2023-04-24T01:28:28;10.40;99.90
54930;DHT22;40833;53.238;6.576;2023-04-24T01:30:54;10.30;99.90
54930;DHT22;40833;53.238;6.576;2023-04-24T01:33:21;10.40;99.90
54930;DHT22;40833;53.238;6.576;2023-04-24T01:35:48;10.40;99.90
54930;DHT22;40833;53.238;6.576;2023-04-24T01:38:14;10.60;99.90
54930;DHT22;40833;53.238;6.576;2023-04-24T01:40:40;10.40;99.90
54930;DHT22;40833;53.238;6.576;2023-04-24T01:43:05;10.10;99.90
54930;DHT22;40833;53.238;6.576;2023-04-24T01:45:31;10.30;99.90
54930;DHT22;40833;53.238;6.576;2023-04-24T01:47:58;10.10;99.90
54930;DHT22;40833;53.238;6.576;2023-04-24T01:50:25;10.40;99.90
54930;DHT22;40833;53.238;6.576;2023-04-24T01:57:43;10.10;99.90
54930;DHT22;40833;53.238;6.576;2023-04-24T02:00:09;10.60;99.90
54930;DHT22;40833;53.238;6.576;2023-04-24T02:02:38;10.10;99.90
54930;DHT22;40833;53.238;6.576;2023-04-24T02:05:06;10.30;99.90
54930;DHT22;40833;53.238;6.576;2023-04-24T02:07:32;10.20;99.90
54930;DHT22;40833;53.238;6.576;2023-04-24T02:09:58;10.10;99.90
54930;DHT22;40833;53.238;6.576;2023-04-24T02:12:24;10.10;99.90
54930;DHT22;40833;53.238;6.576;2023-04-24T02:17:16;10.10;99.90
54930;DHT22;40833;53.238;6.576;2023-04-24T02:19:42;10.10;99.90
54930;DHT22;40833;53.238;6.576;2023-04-24T02:22:08;10.10;99.90
54930;DHT22;40833;53.238;6.576;2023-04-24T02:24:33;10.10;99.90
54930;DHT22;40833;53.238;6.576;2023-04-24T02:26:59;10.10;99.90
54930;DHT22;40833;53.238;6.576;2023-04-24T02:29:25;10.00;99.90
54930;DHT22;40833;53.238;6.576;2023-04-24T02:31:51;10.00;99.90
54930;DHT22;40833;53.238;6.576;2023-04-24T02:34:17;9.80;99.90
54930;DHT22;40833;53.238;6.576;2023-04-24T02:36:42;10.00;99.90
54930;DHT22;40833;53.238;6.576;2023-04-24T02:39:08;10.00;99.90
54930;DHT22;40833;53.238;6.576;2023-04-24T02:41:33;10.00;99.90
54930;DHT22;40833;53.238;6.576;2023-04-24T02:43:59;10.00;99.90
54930;DHT22;40833;53.238;6.576;2023-04-24T02:46:25;10.00;99.90
54930;DHT22;40833;53.238;6.576;2023-04-24T02:48:51;10.00;99.90
54930;DHT22;40833;53.238;6.576;2023-04-24T02:51:17;10.10;99.90
54930;DHT22;40833;53.238;6.576;2023-04-24T02:53:43;10.10;99.90
54930;DHT22;40833;53.238;6.576;2023-04-24T02:56:08;10.10;99.90
54930;DHT22;40833;53.238;6.576;2023-04-24T02:58:37;10.10;99.90
54930;DHT22;40833;53.238;6.576;2023-04-24T03:01:03;10.20;99.90
54930;DHT22;40833;53.238;6.576;2023-04-24T03:03:29;10.10;99.90
54930;DHT22;40833;53.238;6.576;2023-04-24T03:05:54;10.10;99.90
54930;DHT22;40833;53.238;6.576;2023-04-24T03:08:20;10.10;99.90
54930;DHT22;40833;53.238;6.576;2023-04-24T03:10:46;10.20;99.90
54930;DHT22;40833;53.238;6.576;2023-04-24T03:13:12;10.20;99.90
54930;DHT22;40833;53.238;6.576;2023-04-24T03:15:38;10.20;99.90
54930;DHT22;40833;53.238;6.576;2023-04-24T03:18:03;10.20;99.90
54930;DHT22;40833;53.238;6.576;2023-04-24T03:20:29;10.20;99.90
54930;DHT22;40833;53.238;6.576;2023-04-24T03:22:55;10.20;99.90
54930;DHT22;40833;53.238;6.576;2023-04-24T03:25:21;10.20;99.90
54930;DHT22;40833;53.238;6.576;2023-04-24T03:27:47;10.00;99.90
54930;DHT22;40833;53.238;6.576;2023-04-24T03:30:13;10.20;99.90
54930;DHT22;40833;53.238;6.576;2023-04-24T03:32:38;10.20;99.90
54930;DHT22;40833;53.238;6.576;2023-04-24T03:35:06;10.20;99.90
54930;DHT22;40833;53.238;6.576;2023-04-24T03:37:33;10.20;99.90
54930;DHT22;40833;53.238;6.576;2023-04-24T03:39:58;10.20;99.90
54930;DHT22;40833;53.238;6.576;2023-04-24T03:42:24;10.20;99.90
54930;DHT22;40833;53.238;6.576;2023-04-24T03:44:50;10.30;99.90
54930;DHT22;40833;53.238;6.576;2023-04-24T03:47:15;10.30;99.90
54930;DHT22;40833;53.238;6.576;2023-04-24T03:49:41;9.80;99.90
54930;DHT22;40833;53.238;6.576;2023-04-24T03:52:07;10.20;99.90
54930;DHT22;40833;53.238;6.576;2023-04-24T03:54:32;10.20;99.90
54930;DHT22;40833;53.238;6.576;2023-04-24T03:56:58;9.90;99.90
54930;DHT22;40833;53.238;6.576;2023-04-24T03:59:24;10.20;99.90
54930;DHT22;40833;53.238;6.576;2023-04-24T04:01:49;10.50;99.90
54930;DHT22;40833;53.238;6.576;2023-04-24T04:04:15;10.20;99.90
54930;DHT22;40833;53.238;6.576;2023-04-24T04:06:41;10.30;99.90
54930;DHT22;40833;53.238;6.576;2023-04-24T04:09:07;10.20;99.90
54930;DHT22;40833;53.238;6.576;2023-04-24T04:11:34;10.20;99.90
54930;DHT22;40833;53.238;6.576;2023-04-24T04:14:01;9.90;99.90
54930;DHT22;40833;53.238;6.576;2023-04-24T04:16:26;10.10;99.90
54930;DHT22;40833;53.238;6.576;2023-04-24T04:21:18;10.10;99.90
54930;DHT22;40833;53.238;6.576;2023-04-24T04:23:44;10.10;99.90
54930;DHT22;40833;53.238;6.576;2023-04-24T04:26:10;10.10;99.90
54930;DHT22;40833;53.238;6.576;2023-04-24T04:28:36;10.10;99.90
54930;DHT22;40833;53.238;6.576;2023-04-24T04:31:03;10.20;99.90
54930;DHT22;40833;53.238;6.576;2023-04-24T04:33:29;10.10;99.90
54930;DHT22;40833;53.238;6.576;2023-04-24T04:35:54;10.10;99.90
54930;DHT22;40833;53.238;6.576;2023-04-24T04:38:22;10.20;99.90
54930;DHT22;40833;53.238;6.576;2023-04-24T04:40:48;10.10;99.90
54930;DHT22;40833;53.238;6.576;2023-04-24T04:43:14;10.10;99.90
54930;DHT22;40833;53.238;6.576;2023-04-24T04:45:42;10.10;99.90
54930;DHT22;40833;53.238;6.576;2023-04-24T04:48:09;10.10;99.90
54930;DHT22;40833;53.238;6.576;2023-04-24T04:50:37;10.10;99.90
54930;DHT22;40833;53.238;6.576;2023-04-24T04:53:03;10.10;99.90
54930;DHT22;40833;53.238;6.576;2023-04-24T04:55:29;10.20;99.90
54930;DHT22;40833;53.238;6.576;2023-04-24T04:57:55;10.10;99.90
54930;DHT22;40833;53.238;6.576;2023-04-24T05:02:50;10.00;99.90
54930;DHT22;40833;53.238;6.576;2023-04-24T05:05:16;10.10;99.90
54930;DHT22;40833;53.238;6.576;2023-04-24T05:07:43;10.10;99.90
54930;DHT22;40833;53.238;6.576;2023-04-24T05:10:09;10.10;99.90
54930;DHT22;40833;53.238;6.576;2023-04-24T05:12:35;10.10;99.90
54930;DHT22;40833;53.238;6.576;2023-04-24T05:15:00;10.10;99.90
54930;DHT22;40833;53.238;6.576;2023-04-24T05:17:29;10.10;99.90
54930;DHT22;40833;53.238;6.576;2023-04-24T05:19:55;10.20;99.90
54930;DHT22;40833;53.238;6.576;2023-04-24T05:22:21;10.10;99.90
54930;DHT22;40833;53.238;6.576;2023-04-24T05:24:47;10.50;99.90
54930;DHT22;40833;53.238;6.576;2023-04-24T05:27:13;10.20;99.90
54930;DHT22;40833;53.238;6.576;2023-04-24T05:29:39;10.20;99.90
54930;DHT22;40833;53.238;6.576;2023-04-24T05:32:08;10.20;99.90
54930;DHT22;40833;53.238;6.576;2023-04-24T05:34:37;10.20;99.90
54930;DHT22;40833;53.238;6.576;2023-04-24T05:37:02;10.20;99.90
54930;DHT22;40833;53.238;6.576;2023-04-24T05:39:29;10.20;99.90
54930;DHT22;40833;53.238;6.576;2023-04-24T05:41:54;10.20;99.90
54930;DHT22;40833;53.238;6.576;2023-04-24T05:44:23;10.20;99.90
54930;DHT22;40833;53.238;6.576;2023-04-24T05:46:49;10.10;99.90
54930;DHT22;40833;53.238;6.576;2023-04-24T05:49:14;10.10;99.90
54930;DHT22;40833;53.238;6.576;2023-04-24T05:51:40;10.10;99.90
54930;DHT22;40833;53.238;6.576;2023-04-24T05:54:07;10.20;99.90
54930;DHT22;40833;53.238;6.576;2023-04-24T05:56:33;10.10;99.90
54930;DHT22;40833;53.238;6.576;2023-04-24T05:58:58;10.50;99.90
54930;DHT22;40833;53.238;6.576;2023-04-24T06:01:24;10.10;99.90
54930;DHT22;40833;53.238;6.576;2023-04-24T06:03:50;10.10;99.90
54930;DHT22;40833;53.238;6.576;2023-04-24T06:06:16;10.00;99.90
54930;DHT22;40833;53.238;6.576;2023-04-24T06:08:42;10.00;99.90
54930;DHT22;40833;53.238;6.576;2023-04-24T06:11:09;9.90;99.90
54930;DHT22;40833;53.238;6.576;2023-04-24T06:13:35;10.50;99.90
54930;DHT22;40833;53.238;6.576;2023-04-24T06:16:00;9.90;99.90
54930;DHT22;40833;53.238;6.576;2023-04-24T06:18:27;9.90;99.90
54930;DHT22;40833;53.238;6.576;2023-04-24T06:20:52;10.00;99.90
54930;DHT22;40833;53.238;6.576;2023-04-24T06:23:18;9.80;99.90
54930;DHT22;40833;53.238;6.576;2023-04-24T06:25:44;9.80;99.90
54930;DHT22;40833;53.238;6.576;2023-04-24T06:28:09;9.80;99.90
54930;DHT22;40833;53.238;6.576;2023-04-24T06:30:35;9.90;99.90
54930;DHT22;40833;53.238;6.576;2023-04-24T06:33:01;9.90;99.90
54930;DHT22;40833;53.238;6.576;2023-04-24T06:35:27;9.90;99.90
54930;DHT22;40833;53.238;6.576;2023-04-24T06:37:55;9.80;99.90
54930;DHT22;40833;53.238;6.576;2023-04-24T06:40:22;9.80;99.90
54930;DHT22;40833;53.238;6.576;2023-04-24T06:42:48;9.90;99.90
54930;DHT22;40833;53.238;6.576;2023-04-24T06:45:13;9.90;99.90
54930;DHT22;40833;53.238;6.576;2023-04-24T06:47:39;9.90;99.90
54930;DHT22;40833;53.238;6.576;2023-04-24T06:50:05;9.90;99.90
54930;DHT22;40833;53.238;6.576;2023-04-24T06:52:31;9.90;99.90
54930;DHT22;40833;53.238;6.576;2023-04-24T06:55:02;9.90;99.90
54930;DHT22;40833;53.238;6.576;2023-04-24T06:57:28;10.00;99.90
54930;DHT22;40833;53.238;6.576;2023-04-24T06:59:54;9.90;99.90
54930;DHT22;40833;53.238;6.576;2023-04-24T07:02:20;9.90;99.90
54930;DHT22;40833;53.238;6.576;2023-04-24T07:04:46;9.90;99.90
54930;DHT22;40833;53.238;6.576;2023-04-24T07:07:13;9.90;99.90
54930;DHT22;40833;53.238;6.576;2023-04-24T07:09:42;9.90;99.90
54930;DHT22;40833;53.238;6.576;2023-04-24T07:12:09;9.90;99.90
54930;DHT22;40833;53.238;6.576;2023-04-24T07:14:39;9.90;99.90
54930;DHT22;40833;53.238;6.576;2023-04-24T07:17:05;9.90;99.90
54930;DHT22;40833;53.238;6.576;2023-04-24T07:19:33;9.90;99.90
54930;DHT22;40833;53.238;6.576;2023-04-24T07:21:59;9.90;99.90
54930;DHT22;40833;53.238;6.576;2023-04-24T07:24:25;10.00;99.90
54930;DHT22;40833;53.238;6.576;2023-04-24T07:26:51;9.80;99.90
54930;DHT22;40833;53.238;6.576;2023-04-24T07:29:18;9.70;99.90
54930;DHT22;40833;53.238;6.576;2023-04-24T07:31:44;9.80;99.90
54930;DHT22;40833;53.238;6.576;2023-04-24T07:34:09;9.80;99.90
54930;DHT22;40833;53.238;6.576;2023-04-24T07:36:36;9.70;99.90
54930;DHT22;40833;53.238;6.576;2023-04-24T07:39:07;9.70;99.90
54930;DHT22;40833;53.238;6.576;2023-04-24T07:41:33;9.70;99.90
54930;DHT22;40833;53.238;6.576;2023-04-24T07:43:59;9.70;99.90
54930;DHT22;40833;53.238;6.576;2023-04-24T07:46:25;9.70;99.90
54930;DHT22;40833;53.238;6.576;2023-04-24T07:48:51;9.70;99.90
54930;DHT22;40833;53.238;6.576;2023-04-24T07:51:17;9.70;99.90
54930;DHT22;40833;53.238;6.576;2023-04-24T07:53:43;9.70;99.90
54930;DHT22;40833;53.238;6.576;2023-04-24T07:56:09;9.70;99.90
54930;DHT22;40833;53.238;6.576;2023-04-24T07:58:35;9.20;99.90
54930;DHT22;40833;53.238;6.576;2023-04-24T08:01:01;9.60;99.90
54930;DHT22;40833;53.238;6.576;2023-04-24T08:03:26;9.60;99.90
54930;DHT22;40833;53.238;6.576;2023-04-24T08:05:52;9.30;99.90
54930;DHT22;40833;53.238;6.576;2023-04-24T08:08:21;9.60;99.90
54930;DHT22;40833;53.238;6.576;2023-04-24T08:10:47;9.60;99.90
54930;DHT22;40833;53.238;6.576;2023-04-24T08:13:13;9.50;99.90
54930;DHT22;40833;53.238;6.576;2023-04-24T08:15:38;9.50;99.90
54930;DHT22;40833;53.238;6.576;2023-04-24T08:18:04;9.50;99.90
54930;DHT22;40833;53.238;6.576;2023-04-24T08:20:30;9.40;99.90
54930;DHT22;40833;53.238;6.576;2023-04-24T08:22:56;12.20;99.90
54930;DHT22;40833;53.238;6.576;2023-04-24T08:25:22;9.40;99.90
54930;DHT22;40833;53.238;6.576;2023-04-24T08:27:50;9.50;99.90
54930;DHT22;40833;53.238;6.576;2023-04-24T08:30:16;9.40;99.90
54930;DHT22;40833;53.238;6.576;2023-04-24T08:32:42;9.40;99.90
54930;DHT22;40833;53.238;6.576;2023-04-24T08:35:08;9.40;99.90
54930;DHT22;40833;53.238;6.576;2023-04-24T08:37:37;9.40;99.90
54930;DHT22;40833;53.238;6.576;2023-04-24T08:40:14;9.40;99.90
54930;DHT22;40833;53.238;6.576;2023-04-24T08:42:42;9.40;99.90
54930;DHT22;40833;53.238;6.576;2023-04-24T08:45:09;9.40;99.90
54930;DHT22;40833;53.238;6.576;2023-04-24T08:47:37;9.30;99.90
54930;DHT22;40833;53.238;6.576;2023-04-24T08:50:03;9.30;99.90
54930;DHT22;40833;53.238;6.576;2023-04-24T08:52:32;9.30;99.90
54930;DHT22;40833;53.238;6.576;2023-04-24T08:55:00;9.20;99.90
54930;DHT22;40833;53.238;6.576;2023-04-24T08:57:27;9.10;99.90
54930;DHT22;40833;53.238;6.576;2023-04-24T08:59:53;9.20;99.90
54930;DHT22;40833;53.238;6.576;2023-04-24T09:02:21;9.10;99.90
54930;DHT22;40833;53.238;6.576;2023-04-24T09:04:47;9.00;99.90
54930;DHT22;40833;53.238;6.576;2023-04-24T09:07:16;8.90;99.90
54930;DHT22;40833;53.238;6.576;2023-04-24T09:09:42;8.90;99.90
54930;DHT22;40833;53.238;6.576;2023-04-24T09:12:08;8.90;99.90
54930;DHT22;40833;53.238;6.576;2023-04-24T09:14:36;8.90;99.90
54930;DHT22;40833;53.238;6.576;2023-04-24T09:17:06;9.20;99.90
54930;DHT22;40833;53.238;6.576;2023-04-24T09:19:31;8.90;99.90
54930;DHT22;40833;53.238;6.576;2023-04-24T09:21:57;9.60;99.90
54930;DHT22;40833;53.238;6.576;2023-04-24T09:24:23;8.90;99.90
54930;DHT22;40833;53.238;6.576;2023-04-24T09:26:56;8.90;99.90
54930;DHT22;40833;53.238;6.576;2023-04-24T09:29:29;9.10;99.90
54930;DHT22;40833;53.238;6.576;2023-04-24T09:31:55;9.10;99.90
54930;DHT22;40833;53.238;6.576;2023-04-24T09:34:25;9.10;99.90
54930;DHT22;40833;53.238;6.576;2023-04-24T09:36:52;9.10;99.90
54930;DHT22;40833;53.238;6.576;2023-04-24T09:39:18;9.10;99.90
54930;DHT22;40833;53.238;6.576;2023-04-24T09:41:49;9.30;99.90
54930;DHT22;40833;53.238;6.576;2023-04-24T09:44:17;9.00;99.90
54930;DHT22;40833;53.238;6.576;2023-04-24T09:46:45;9.20;99.90
54930;DHT22;40833;53.238;6.576;2023-04-24T09:49:15;9.20;99.90
54930;DHT22;40833;53.238;6.576;2023-04-24T09:51:44;9.20;99.90
54930;DHT22;40833;53.238;6.576;2023-04-24T09:54:18;8.80;99.90
54930;DHT22;40833;53.238;6.576;2023-04-24T09:56:49;8.90;99.90
54930;DHT22;40833;53.238;6.576;2023-04-24T09:59:18;9.20;99.90
54930;DHT22;40833;53.238;6.576;2023-04-24T10:01:52;9.10;99.90
54930;DHT22;40833;53.238;6.576;2023-04-24T10:04:19;8.90;99.90
54930;DHT22;40833;53.238;6.576;2023-04-24T10:06:47;9.20;99.90
54930;DHT22;40833;53.238;6.576;2023-04-24T10:09:15;9.30;99.90
54930;DHT22;40833;53.238;6.576;2023-04-24T10:11:42;9.70;99.90
54930;DHT22;40833;53.238;6.576;2023-04-24T10:14:13;9.50;99.90
54930;DHT22;40833;53.238;6.576;2023-04-24T10:16:40;9.70;99.90
54930;DHT22;40833;53.238;6.576;2023-04-24T10:19:06;10.10;99.90
54930;DHT22;40833;53.238;6.576;2023-04-24T10:21:33;10.00;99.90
54930;DHT22;40833;53.238;6.576;2023-04-24T10:23:59;10.10;99.90
54930;DHT22;40833;53.238;6.576;2023-04-24T10:26:29;10.20;99.90
54930;DHT22;40833;53.238;6.576;2023-04-24T10:28:57;10.40;99.90
54930;DHT22;40833;53.238;6.576;2023-04-24T10:31:24;10.40;99.90
54930;DHT22;40833;53.238;6.576;2023-04-24T10:33:51;10.50;99.90
54930;DHT22;40833;53.238;6.576;2023-04-24T10:36:18;10.60;99.90
54930;DHT22;40833;53.238;6.576;2023-04-24T10:38:45;10.70;99.90
54930;DHT22;40833;53.238;6.576;2023-04-24T10:41:13;10.80;99.90
54930;DHT22;40833;53.238;6.576;2023-04-24T10:43:45;11.00;99.90
54930;DHT22;40833;53.238;6.576;2023-04-24T10:46:19;10.80;99.90
54930;DHT22;40833;53.238;6.576;2023-04-24T10:48:55;10.90;99.90
54930;DHT22;40833;53.238;6.576;2023-04-24T10:51:23;10.40;99.90
54930;DHT22;40833;53.238;6.576;2023-04-24T10:53:52;10.80;99.90
54930;DHT22;40833;53.238;6.576;2023-04-24T10:56:18;10.80;99.90
54930;DHT22;40833;53.238;6.576;2023-04-24T10:58:51;10.80;99.90
54930;DHT22;40833;53.238;6.576;2023-04-24T11:01:31;10.80;99.90
54930;DHT22;40833;53.238;6.576;2023-04-24T11:04:02;7.90;99.90
54930;DHT22;40833;53.238;6.576;2023-04-24T11:06:30;10.80;99.90
54930;DHT22;40833;53.238;6.576;2023-04-24T11:09:10;10.60;99.90
54930;DHT22;40833;53.238;6.576;2023-04-24T11:11:45;10.80;99.90
54930;DHT22;40833;53.238;6.576;2023-04-24T11:14:14;11.50;99.90
54930;DHT22;40833;53.238;6.576;2023-04-24T11:16:54;10.90;99.90
54930;DHT22;40833;53.238;6.576;2023-04-24T11:19:27;10.90;99.90
54930;DHT22;40833;53.238;6.576;2023-04-24T11:22:14;10.70;99.90
54930;DHT22;40833;53.238;6.576;2023-04-24T11:24:49;10.60;99.90
54930;DHT22;40833;53.238;6.576;2023-04-24T11:32:47;10.60;99.90
54930;DHT22;40833;53.238;6.576;2023-04-24T11:35:19;10.60;99.90
54930;DHT22;40833;53.238;6.576;2023-04-24T11:37:49;10.60;99.90
54930;DHT22;40833;53.238;6.576;2023-04-24T11:40:17;10.60;99.90
54930;DHT22;40833;53.238;6.576;2023-04-24T11:42:51;10.50;99.90
54930;DHT22;40833;53.238;6.576;2023-04-24T11:45:28;10.20;99.90
54930;DHT22;40833;53.238;6.576;2023-04-24T11:47:54;10.30;99.90
54930;DHT22;40833;53.238;6.576;2023-04-24T11:50:25;10.10;99.90
54930;DHT22;40833;53.238;6.576;2023-04-24T11:52:52;10.00;99.90
54930;DHT22;40833;53.238;6.576;2023-04-24T11:57:48;10.20;99.90
54930;DHT22;40833;53.238;6.576;2023-04-24T12:00:19;10.20;99.90
54930;DHT22;40833;53.238;6.576;2023-04-24T12:02:44;10.20;99.90
54930;DHT22;40833;53.238;6.576;2023-04-24T12:05:27;10.20;99.90
54930;DHT22;40833;53.238;6.576;2023-04-24T12:07:53;9.90;99.90
54930;DHT22;40833;53.238;6.576;2023-04-24T12:10:23;10.00;99.90
54930;DHT22;40833;53.238;6.576;2023-04-24T12:12:50;10.00;99.90
54930;DHT22;40833;53.238;6.576;2023-04-24T12:15:18;9.90;99.90
54930;DHT22;40833;53.238;6.576;2023-04-24T12:17:44;9.90;99.90
54930;DHT22;40833;53.238;6.576;2023-04-24T12:20:10;9.50;99.90
54930;DHT22;40833;53.238;6.576;2023-04-24T12:25:12;9.90;99.90
54930;DHT22;40833;53.238;6.576;2023-04-24T12:27:38;10.00;99.90
54930;DHT22;40833;53.238;6.576;2023-04-24T12:30:05;10.10;99.90
54930;DHT22;40833;53.238;6.576;2023-04-24T12:32:31;10.20;99.90
54930;DHT22;40833;53.238;6.576;2023-04-24T12:34:57;10.70;99.90
54930;DHT22;40833;53.238;6.576;2023-04-24T12:37:25;10.40;99.90
54930;DHT22;40833;53.238;6.576;2023-04-24T12:40:06;10.50;99.90
54930;DHT22;40833;53.238;6.576;2023-04-24T12:45:04;11.40;99.90
54930;DHT22;40833;53.238;6.576;2023-04-24T12:47:31;11.00;99.90
54930;DHT22;40833;53.238;6.576;2023-04-24T12:49:57;11.00;99.90
54930;DHT22;40833;53.238;6.576;2023-04-24T12:52:24;10.90;99.90
54930;DHT22;40833;53.238;6.576;2023-04-24T12:54:52;10.80;99.90
54930;DHT22;40833;53.238;6.576;2023-04-24T12:57:18;10.70;99.90
54930;DHT22;40833;53.238;6.576;2023-04-24T12:59:44;10.60;99.90
54930;DHT22;40833;53.238;6.576;2023-04-24T13:02:11;10.10;99.90
54930;DHT22;40833;53.238;6.576;2023-04-24T13:04:36;10.30;99.90
54930;DHT22;40833;53.238;6.576;2023-04-24T13:07:02;10.20;99.90
54930;DHT22;40833;53.238;6.576;2023-04-24T13:09:28;10.20;99.90
54930;DHT22;40833;53.238;6.576;2023-04-24T13:11:54;10.10;99.90
54930;DHT22;40833;53.238;6.576;2023-04-24T13:14:22;10.00;99.90
54930;DHT22;40833;53.238;6.576;2023-04-24T13:16:47;10.00;99.90
54930;DHT22;40833;53.238;6.576;2023-04-24T13:19:13;9.60;99.90
54930;DHT22;40833;53.238;6.576;2023-04-24T13:21:39;9.90;99.90
54930;DHT22;40833;53.238;6.576;2023-04-24T13:24:05;9.80;99.90
54930;DHT22;40833;53.238;6.576;2023-04-24T13:26:33;9.40;99.90
54930;DHT22;40833;53.238;6.576;2023-04-24T13:31:25;9.70;99.90
54930;DHT22;40833;53.238;6.576;2023-04-24T13:33:51;9.70;99.90
54930;DHT22;40833;53.238;6.576;2023-04-24T13:38:43;10.00;99.90
54930;DHT22;40833;53.238;6.576;2023-04-24T13:41:10;9.80;99.90
54930;DHT22;40833;53.238;6.576;2023-04-24T13:43:36;9.70;99.90
54930;DHT22;40833;53.238;6.576;2023-04-24T13:46:01;10.50;99.90
54930;DHT22;40833;53.238;6.576;2023-04-24T13:48:29;10.10;99.90
54930;DHT22;40833;53.238;6.576;2023-04-24T13:50:55;10.40;99.90
54930;DHT22;40833;53.238;6.576;2023-04-24T13:53:20;10.30;99.90
54930;DHT22;40833;53.238;6.576;2023-04-24T13:55:46;10.10;99.90
54930;DHT22;40833;53.238;6.576;2023-04-24T13:58:12;10.20;99.90
54930;DHT22;40833;53.238;6.576;2023-04-24T14:00:38;10.10;99.90
54930;DHT22;40833;53.238;6.576;2023-04-24T14:03:07;10.10;99.90
54930;DHT22;40833;53.238;6.576;2023-04-24T14:05:32;9.70;99.90
54930;DHT22;40833;53.238;6.576;2023-04-24T14:07:58;10.30;99.90
54930;DHT22;40833;53.238;6.576;2023-04-24T14:10:24;9.60;99.90
54930;DHT22;40833;53.238;6.576;2023-04-24T14:12:51;10.00;99.90
54930;DHT22;40833;53.238;6.576;2023-04-24T14:17:43;9.40;99.90
54930;DHT22;40833;53.238;6.576;2023-04-24T14:20:09;9.50;99.90
54930;DHT22;40833;53.238;6.576;2023-04-24T14:22:35;9.50;99.90
54930;DHT22;40833;53.238;6.576;2023-04-24T14:25:00;9.60;99.90
54930;DHT22;40833;53.238;6.576;2023-04-24T14:27:26;9.60;99.90
54930;DHT22;40833;53.238;6.576;2023-04-24T14:29:52;9.50;99.90
54930;DHT22;40833;53.238;6.576;2023-04-24T14:32:18;9.60;99.90
54930;DHT22;40833;53.238;6.576;2023-04-24T14:34:44;9.60;99.90
54930;DHT22;40833;53.238;6.576;2023-04-24T14:37:10;9.50;99.90
54930;DHT22;40833;53.238;6.576;2023-04-24T14:39:36;9.50;99.90
54930;DHT22;40833;53.238;6.576;2023-04-24T14:42:01;9.50;99.90
54930;DHT22;40833;53.238;6.576;2023-04-24T14:44:27;9.60;99.90
54930;DHT22;40833;53.238;6.576;2023-04-24T14:46:53;9.40;99.90
54930;DHT22;40833;53.238;6.576;2023-04-24T14:49:19;9.40;99.90
54930;DHT22;40833;53.238;6.576;2023-04-24T14:51:44;9.50;99.90
54930;DHT22;40833;53.238;6.576;2023-04-24T14:54:10;9.60;99.90
54930;DHT22;40833;53.238;6.576;2023-04-24T14:59:02;9.70;99.90
54930;DHT22;40833;53.238;6.576;2023-04-24T15:01:29;9.40;99.90
54930;DHT22;40833;53.238;6.576;2023-04-24T15:03:55;9.60;99.90
54930;DHT22;40833;53.238;6.576;2023-04-24T15:06:20;9.50;99.90
54930;DHT22;40833;53.238;6.576;2023-04-24T15:08:46;9.50;99.90
54930;DHT22;40833;53.238;6.576;2023-04-24T15:11:12;9.50;99.90
54930;DHT22;40833;53.238;6.576;2023-04-24T15:13:38;9.50;99.90
54930;DHT22;40833;53.238;6.576;2023-04-24T15:16:04;9.50;99.90
54930;DHT22;40833;53.238;6.576;2023-04-24T15:18:30;9.50;99.90
54930;DHT22;40833;53.238;6.576;2023-04-24T15:20:56;9.50;99.90
54930;DHT22;40833;53.238;6.576;2023-04-24T15:23:22;9.50;99.90
54930;DHT22;40833;53.238;6.576;2023-04-24T15:25:48;9.30;99.90
54930;DHT22;40833;53.238;6.576;2023-04-24T15:28:13;9.30;99.90
54930;DHT22;40833;53.238;6.576;2023-04-24T15:33:06;9.50;99.90
54930;DHT22;40833;53.238;6.576;2023-04-24T15:35:35;9.60;99.90
54930;DHT22;40833;53.238;6.576;2023-04-24T15:38:01;9.70;99.90
54930;DHT22;40833;53.238;6.576;2023-04-24T15:40:27;9.70;99.90
54930;DHT22;40833;53.238;6.576;2023-04-24T15:42:53;10.40;99.90
54930;DHT22;40833;53.238;6.576;2023-04-24T15:45:19;9.90;99.90
54930;DHT22;40833;53.238;6.576;2023-04-24T15:47:45;9.90;99.90
54930;DHT22;40833;53.238;6.576;2023-04-24T15:50:14;9.90;99.90
54930;DHT22;40833;53.238;6.576;2023-04-24T15:52:42;9.80;99.90
54930;DHT22;40833;53.238;6.576;2023-04-24T15:55:08;9.70;99.90
54930;DHT22;40833;53.238;6.576;2023-04-24T15:57:35;9.70;99.90
54930;DHT22;40833;53.238;6.576;2023-04-24T16:00:01;9.40;99.90
54930;DHT22;40833;53.238;6.576;2023-04-24T16:02:27;9.40;99.90
54930;DHT22;40833;53.238;6.576;2023-04-24T16:04:53;9.40;99.90
54930;DHT22;40833;53.238;6.576;2023-04-24T16:07:19;9.30;99.90
54930;DHT22;40833;53.238;6.576;2023-04-24T16:09:45;9.20;99.90
54930;DHT22;40833;53.238;6.576;2023-04-24T16:12:11;9.20;99.90
54930;DHT22;40833;53.238;6.576;2023-04-24T16:14:37;9.10;99.90
54930;DHT22;40833;53.238;6.576;2023-04-24T16:17:04;8.90;99.90
54930;DHT22;40833;53.238;6.576;2023-04-24T16:19:30;8.90;99.90
54930;DHT22;40833;53.238;6.576;2023-04-24T16:21:56;8.80;99.90
54930;DHT22;40833;53.238;6.576;2023-04-24T16:24:23;8.70;99.90
54930;DHT22;40833;53.238;6.576;2023-04-24T16:26:54;8.70;99.90
54930;DHT22;40833;53.238;6.576;2023-04-24T16:29:20;8.70;99.90
54930;DHT22;40833;53.238;6.576;2023-04-24T16:31:46;8.70;99.90
54930;DHT22;40833;53.238;6.576;2023-04-24T16:34:12;8.70;99.90
54930;DHT22;40833;53.238;6.576;2023-04-24T16:36:38;8.70;99.90
54930;DHT22;40833;53.238;6.576;2023-04-24T16:39:04;8.80;99.90
54930;DHT22;40833;53.238;6.576;2023-04-24T16:41:30;9.00;99.90
54930;DHT22;40833;53.238;6.576;2023-04-24T16:43:56;9.10;99.90
54930;DHT22;40833;53.238;6.576;2023-04-24T16:46:21;9.50;99.90